Time;durP1;ratioP1;P1;durP2;ratioP2;P2;SDS_P1;SDS_P2;PMS_P1;PMS_P2;Temp;Humidity;BMP_temperature;BMP_pressure;BME280_temperature;BME280_humidity;BME280_pressure;Samples;Min_cycle;Max_cycle;Signal;HPM_P1;HPM_P2
2021/01/25 00:02:10;;;;;;;17.73;11.77;;;0.30;93.70;;;;;;5019524;28;20444;-81
2021/01/25 00:04:37;;;;;;;18.25;11.48;;;0.20;93.80;;;;;;5023019;28;20041;-81
2021/01/25 00:07:03;;;;;;;17.60;13.07;;;0.20;94.30;;;;;;5027309;28;20488;-81
2021/01/25 00:09:30;;;;;;;17.08;10.65;;;0.30;94.00;;;;;;5021029;28;20070;-81
2021/01/25 00:11:55;;;;;;;17.02;11.00;;;0.20;94.30;;;;;;5026465;28;20377;-81
2021/01/25 00:14:21;;;;;;;15.18;9.98;;;0.30;94.30;;;;;;5020204;28;20043;-81
2021/01/25 00:16:47;;;;;;;17.20;10.68;;;0.20;94.20;;;;;;5021273;28;20100;-81
2021/01/25 00:19:12;;;;;;;21.23;12.63;;;0.30;94.20;;;;;;5025021;28;20041;-81
2021/01/25 00:21:38;;;;;;;14.88;10.05;;;0.20;94.00;;;;;;5021541;28;20037;-81
2021/01/25 00:24:04;;;;;;;16.35;10.20;;;0.20;94.10;;;;;;5019760;28;20074;-81
2021/01/25 00:26:30;;;;;;;15.68;11.63;;;0.30;94.20;;;;;;5025459;28;20068;-81
2021/01/25 00:28:55;;;;;;;23.13;12.98;;;0.60;94.20;;;;;;5024481;28;20041;-81
2021/01/25 00:31:21;;;;;;;16.90;10.55;;;0.30;94.00;;;;;;5022080;28;20045;-81
2021/01/25 00:33:47;;;;;;;16.60;11.00;;;0.10;94.20;;;;;;5019331;28;20538;-81
2021/01/25 00:36:12;;;;;;;17.70;9.95;;;0.20;94.40;;;;;;5026939;28;20063;-81
2021/01/25 00:38:38;;;;;;;14.05;10.55;;;0.20;94.10;;;;;;5025680;28;20484;-81
2021/01/25 00:41:04;;;;;;;18.10;11.95;;;0.20;94.10;;;;;;5020923;28;20042;-81
2021/01/25 00:43:29;;;;;;;17.38;11.75;;;0.30;94.00;;;;;;5020267;28;20042;-81
2021/01/25 00:45:55;;;;;;;17.45;13.18;;;0.20;94.00;;;;;;5020921;28;20042;-81
2021/01/25 00:48:20;;;;;;;22.55;11.65;;;0.20;94.00;;;;;;5024871;28;20045;-81
2021/01/25 00:50:46;;;;;;;19.98;11.88;;;0.20;94.00;;;;;;5022248;28;20504;-81
2021/01/25 00:53:12;;;;;;;17.75;10.85;;;0.20;93.90;;;;;;5029340;28;20041;-82
2021/01/25 00:55:37;;;;;;;16.98;10.50;;;0.10;93.80;;;;;;5021427;28;20652;-82
2021/01/25 00:58:03;;;;;;;18.55;10.15;;;0.10;93.80;;;;;;5018783;28;20033;-82
2021/01/25 01:00:29;;;;;;;16.70;11.07;;;0.10;93.80;;;;;;5021605;28;20306;-82
2021/01/25 01:02:55;;;;;;;18.45;12.77;;;0.10;93.70;;;;;;5022472;28;20046;-81
2021/01/25 01:05:21;;;;;;;14.25;10.82;;;0.10;93.80;;;;;;5021469;28;20096;-81
2021/01/25 01:07:46;;;;;;;23.05;14.32;;;0.10;93.90;;;;;;5022390;28;20068;-81
2021/01/25 01:10:13;;;;;;;17.40;11.25;;;0.20;93.80;;;;;;5026412;28;20092;-81
2021/01/25 01:12:39;;;;;;;21.77;11.60;;;0.10;93.90;;;;;;5020372;28;20034;-82
2021/01/25 01:15:12;;;;;;;15.73;11.65;;;0.00;93.80;;;;;;5024199;28;20498;-81
2021/01/25 01:17:39;;;;;;;20.95;13.93;;;0.10;93.80;;;;;;5026231;28;20042;-81
2021/01/25 01:20:06;;;;;;;17.67;13.52;;;0.10;94.00;;;;;;5021824;28;20462;-81
2021/01/25 01:22:31;;;;;;;19.17;12.73;;;0.10;94.10;;;;;;5020303;28;20041;-81
2021/01/25 01:24:57;;;;;;;17.33;13.00;;;0.20;94.10;;;;;;5023524;28;20100;-81
2021/01/25 01:27:23;;;;;;;23.10;14.48;;;0.20;94.10;;;;;;5016330;28;20038;-81
2021/01/25 01:29:48;;;;;;;22.23;15.30;;;0.20;94.10;;;;;;5021003;28;20101;-81
2021/01/25 01:32:14;;;;;;;22.45;13.90;;;0.20;94.10;;;;;;5022951;28;20508;-81
2021/01/25 01:34:40;;;;;;;25.83;15.48;;;0.30;94.10;;;;;;5022075;28;20492;-81
2021/01/25 01:37:05;;;;;;;19.30;13.88;;;0.20;94.20;;;;;;5022565;28;20033;-81
2021/01/25 01:39:31;;;;;;;25.42;16.70;;;0.40;94.20;;;;;;5019129;28;20459;-81
2021/01/25 01:41:56;;;;;;;19.52;15.27;;;0.30;94.60;;;;;;5019054;28;20044;-81
2021/01/25 01:44:22;;;;;;;23.15;16.27;;;0.30;94.30;;;;;;5023313;28;20042;-81
2021/01/25 01:46:48;;;;;;;25.13;16.95;;;0.30;94.40;;;;;;5025632;28;20434;-81
2021/01/25 01:49:14;;;;;;;25.05;17.58;;;0.30;94.30;;;;;;5020486;28;20038;-81
2021/01/25 01:51:40;;;;;;;19.73;14.25;;;0.30;94.30;;;;;;5018760;28;20103;-82
2021/01/25 01:54:09;;;;;;;21.48;13.63;;;0.30;94.20;;;;;;5023193;28;20037;-82
2021/01/25 01:56:35;;;;;;;21.13;14.38;;;0.30;94.20;;;;;;5021253;28;20045;-81
2021/01/25 01:59:00;;;;;;;24.35;15.20;;;0.30;94.10;;;;;;5020987;28;20522;-82
2021/01/25 02:01:27;;;;;;;19.30;13.23;;;0.20;93.80;;;;;;5020727;28;20045;-82
2021/01/25 02:03:54;;;;;;;16.67;12.15;;;0.20;94.00;;;;;;5020373;28;20127;-82
2021/01/25 02:06:21;;;;;;;19.17;13.98;;;0.20;93.70;;;;;;5020633;28;20042;-82
2021/01/25 02:08:49;;;;;;;19.02;13.90;;;0.20;93.70;;;;;;5027737;28;20045;-81
2021/01/25 02:11:16;;;;;;;22.98;16.95;;;0.20;93.80;;;;;;5024880;28;20040;-81
2021/01/25 02:13:42;;;;;;;24.52;17.45;;;0.30;93.90;;;;;;5021162;28;20120;-81
2021/01/25 02:16:08;;;;;;;26.08;18.55;;;0.20;94.10;;;;;;5025011;28;20112;-81
2021/01/25 02:18:34;;;;;;;21.25;17.65;;;0.20;94.10;;;;;;5030848;28;20033;-81
2021/01/25 02:21:03;;;;;;;23.67;19.00;;;0.30;94.20;;;;;;5025373;28;20450;-81
2021/01/25 02:24:01;;;;;;;29.38;20.00;;;0.30;94.20;;;;;;5021305;28;20430;-82
2021/01/25 02:27:00;;;;;;;23.75;17.45;;;0.20;94.10;;;;;;5024427;28;20044;-82
2021/01/25 02:29:26;;;;;;;29.65;19.23;;;0.20;94.10;;;;;;5024142;28;20037;-82
2021/01/25 02:31:53;;;;;;;21.85;16.70;;;0.20;94.10;;;;;;5029732;28;20048;-82
2021/01/25 02:34:19;;;;;;;21.88;16.33;;;0.10;94.00;;;;;;5030441;28;20053;-82
2021/01/25 02:36:47;;;;;;;22.23;17.92;;;0.10;94.20;;;;;;5022438;28;20045;-82
2021/01/25 02:39:15;;;;;;;24.83;17.42;;;0.00;93.80;;;;;;5021040;28;20041;-82
2021/01/25 02:41:42;;;;;;;21.00;17.98;;;0.00;93.90;;;;;;5022814;28;20038;-82
2021/01/25 02:44:09;;;;;;;25.40;17.40;;;0.00;93.80;;;;;;5021820;28;20037;-82
2021/01/25 02:46:35;;;;;;;27.00;16.60;;;0.00;93.90;;;;;;5028036;28;20115;-82
2021/01/25 02:49:02;;;;;;;23.20;15.93;;;0.00;94.00;;;;;;5030845;28;20042;-82
2021/01/25 02:51:27;;;;;;;17.85;15.48;;;0.00;93.90;;;;;;5024191;28;20063;-82
2021/01/25 02:53:53;;;;;;;23.88;14.75;;;0.00;93.80;;;;;;5025049;28;20042;-82
2021/01/25 02:56:19;;;;;;;21.83;16.77;;;0.00;93.70;;;;;;5024622;28;20065;-82
2021/01/25 02:58:45;;;;;;;22.70;16.48;;;0.00;93.70;;;;;;5022987;28;20033;-82
2021/01/25 03:01:11;;;;;;;23.40;16.55;;;0.00;93.60;;;;;;5028576;28;20034;-82
2021/01/25 03:03:38;;;;;;;23.40;17.33;;;0.00;93.60;;;;;;5027471;28;20048;-82
2021/01/25 03:06:04;;;;;;;21.33;16.02;;;0.00;93.70;;;;;;5022895;28;20041;-82
2021/01/25 03:08:30;;;;;;;20.50;15.98;;;-0.10;93.70;;;;;;5019096;28;20029;-82
2021/01/25 03:10:56;;;;;;;20.67;16.55;;;0.00;93.70;;;;;;5023061;28;20033;-82
2021/01/25 03:13:26;;;;;;;22.10;17.75;;;-0.10;93.50;;;;;;5030612;28;20047;-82
2021/01/25 03:15:55;;;;;;;23.83;16.90;;;-0.10;93.40;;;;;;5025511;28;20487;-82
2021/01/25 03:18:21;;;;;;;29.63;17.58;;;-0.10;93.50;;;;;;5025935;28;20048;-82
2021/01/25 03:20:50;;;;;;;26.20;18.10;;;-0.20;93.50;;;;;;5018883;28;20516;-82
2021/01/25 03:23:17;;;;;;;20.88;17.85;;;-0.20;93.40;;;;;;5021878;28;20048;-82
2021/01/25 03:25:43;;;;;;;23.98;17.92;;;-0.20;93.60;;;;;;5023834;28;20149;-82
2021/01/25 03:28:09;;;;;;;24.17;16.80;;;-0.20;93.80;;;;;;5023302;28;20510;-82
2021/01/25 03:30:35;;;;;;;25.17;19.00;;;-0.20;93.90;;;;;;5024329;28;20030;-82
2021/01/25 03:33:01;;;;;;;28.58;19.05;;;-0.20;93.80;;;;;;5028209;28;20052;-82
2021/01/25 03:35:26;;;;;;;24.75;17.75;;;-0.20;93.80;;;;;;5027914;28;20026;-82
2021/01/25 03:37:52;;;;;;;25.23;17.52;;;-0.20;93.80;;;;;;5017162;28;20384;-82
2021/01/25 03:40:18;;;;;;;19.45;14.98;;;-0.20;93.70;;;;;;5028453;28;20181;-82
2021/01/25 03:42:43;;;;;;;21.10;15.43;;;-0.20;93.60;;;;;;5026776;28;20103;-82
2021/01/25 03:45:09;;;;;;;27.80;18.58;;;-0.40;93.20;;;;;;5029183;28;20102;-82
2021/01/25 03:47:35;;;;;;;23.35;17.67;;;-0.40;93.40;;;;;;5019627;28;20048;-82
2021/01/25 03:50:01;;;;;;;25.05;16.73;;;-0.50;93.60;;;;;;5028304;28;20136;-82
2021/01/25 03:52:26;;;;;;;20.45;15.68;;;-0.40;93.70;;;;;;5025002;28;20038;-82
2021/01/25 03:54:52;;;;;;;23.88;18.17;;;-0.40;93.60;;;;;;5024296;28;20050;-82
2021/01/25 03:57:18;;;;;;;22.77;16.90;;;-0.40;93.60;;;;;;5021124;28;20116;-82
2021/01/25 03:59:43;;;;;;;20.80;16.45;;;-0.40;93.60;;;;;;5024121;28;20041;-82
2021/01/25 04:02:13;;;;;;;22.88;17.70;;;-0.40;93.70;;;;;;5027930;28;20036;-82
2021/01/25 04:04:41;;;;;;;29.40;18.05;;;-0.40;93.60;;;;;;5022688;28;20116;-82
2021/01/25 04:07:10;;;;;;;24.95;17.95;;;-0.40;93.70;;;;;;5026115;28;20056;-82
2021/01/25 04:09:37;;;;;;;24.48;16.63;;;-0.40;93.50;;;;;;5020952;28;20512;-82
2021/01/25 04:12:03;;;;;;;24.90;16.92;;;-0.40;93.60;;;;;;5024888;28;20105;-82
2021/01/25 04:14:28;;;;;;;22.23;15.30;;;-0.50;93.50;;;;;;5023605;28;20047;-82
2021/01/25 04:16:54;;;;;;;24.00;17.25;;;-0.60;93.30;;;;;;5022901;28;20205;-82
2021/01/25 04:19:19;;;;;;;24.20;15.48;;;-0.50;93.40;;;;;;5023393;28;20116;-82
2021/01/25 04:21:45;;;;;;;21.15;16.58;;;-0.60;93.40;;;;;;5022627;28;20485;-82
2021/01/25 04:24:11;;;;;;;20.33;16.98;;;-0.60;93.50;;;;;;5020142;28;20029;-82
2021/01/25 04:26:41;;;;;;;23.73;17.00;;;-0.60;93.50;;;;;;5021673;28;20033;-82
2021/01/25 04:29:09;;;;;;;23.40;17.17;;;-0.60;93.40;;;;;;5021212;28;20128;-82
2021/01/25 04:31:35;;;;;;;27.65;16.88;;;-0.60;93.40;;;;;;5024109;28;20392;-82
2021/01/25 04:34:01;;;;;;;22.23;16.55;;;-0.40;93.50;;;;;;5048659;28;20088;-82
2021/01/25 04:36:26;;;;;;;22.58;16.75;;;-0.60;93.50;;;;;;5025418;28;20037;-82
2021/01/25 04:38:52;;;;;;;23.90;16.90;;;-0.60;93.50;;;;;;5018702;28;20041;-82
2021/01/25 04:41:18;;;;;;;20.52;15.30;;;-0.40;93.50;;;;;;5026824;28;20037;-82
2021/01/25 04:43:44;;;;;;;19.77;16.95;;;-0.50;93.30;;;;;;5023422;28;20392;-82
2021/01/25 04:46:10;;;;;;;20.98;16.50;;;-0.60;93.20;;;;;;5022126;28;20040;-82
2021/01/25 04:48:37;;;;;;;24.23;16.52;;;-0.60;93.30;;;;;;5025090;28;20500;-82
2021/01/25 04:51:03;;;;;;;24.50;17.08;;;-0.60;93.30;;;;;;5022065;28;20029;-82
2021/01/25 04:53:29;;;;;;;21.98;17.15;;;-0.70;93.20;;;;;;5024931;28;20041;-82
2021/01/25 04:55:55;;;;;;;23.27;17.85;;;-0.70;93.40;;;;;;5023745;28;20034;-82
2021/01/25 04:58:21;;;;;;;22.70;17.33;;;-0.60;93.20;;;;;;5022781;28;20045;-82
2021/01/25 05:00:47;;;;;;;26.33;19.08;;;-0.70;93.30;;;;;;5026003;28;20053;-82
2021/01/25 05:03:12;;;;;;;26.60;19.02;;;-0.70;93.40;;;;;;5029413;28;20464;-82
2021/01/25 05:05:38;;;;;;;22.50;16.83;;;-0.60;93.60;;;;;;5025360;28;20037;-82
2021/01/25 05:08:04;;;;;;;21.77;15.55;;;-0.70;93.60;;;;;;5028813;28;20045;-82
2021/01/25 05:10:33;;;;;;;21.90;16.65;;;-0.80;93.40;;;;;;5022303;28;20112;-82
2021/01/25 05:12:58;;;;;;;20.60;15.73;;;-0.80;93.30;;;;;;5022102;28;20049;-82
2021/01/25 05:15:28;;;;;;;21.95;17.33;;;-0.80;93.50;;;;;;5023715;28;20034;-82
2021/01/25 05:18:00;;;;;;;22.95;16.90;;;-0.90;93.40;;;;;;5029885;28;20044;-82
2021/01/25 05:20:27;;;;;;;22.98;16.98;;;-0.80;93.60;;;;;;5022972;28;20067;-82
2021/01/25 05:22:59;;;;;;;22.05;17.65;;;-0.70;93.70;;;;;;5021153;28;20549;-82
2021/01/25 05:25:34;;;;;;;23.20;18.73;;;-0.90;93.70;;;;;;5027291;28;20454;-82
2021/01/25 05:28:01;;;;;;;24.98;17.75;;;-0.90;93.80;;;;;;5028363;28;20164;-82
2021/01/25 05:30:28;;;;;;;24.98;17.92;;;-1.00;93.50;;;;;;5023073;28;20420;-82
2021/01/25 05:32:55;;;;;;;23.77;16.15;;;-1.00;93.60;;;;;;5024264;28;20052;-82
2021/01/25 05:35:29;;;;;;;24.65;18.05;;;-1.00;93.40;;;;;;5027718;28;20055;-82
2021/01/25 05:37:56;;;;;;;23.95;18.00;;;-1.00;93.50;;;;;;5021685;28;20037;-82
2021/01/25 05:40:23;;;;;;;26.42;18.70;;;-1.00;93.80;;;;;;5023985;28;20037;-81
2021/01/25 05:42:49;;;;;;;26.92;20.27;;;-0.90;93.90;;;;;;5027916;28;20045;-82
2021/01/25 05:45:16;;;;;;;25.27;19.15;;;-1.00;93.80;;;;;;5025762;28;20037;-82
2021/01/25 05:47:44;;;;;;;28.13;19.00;;;-0.90;93.90;;;;;;5023727;28;20550;-82
2021/01/25 05:50:23;;;;;;;25.08;19.23;;;-0.90;93.90;;;;;;5031892;28;20084;-82
2021/01/25 05:52:48;;;;;;;26.02;19.40;;;-0.90;93.80;;;;;;5026384;28;20052;-82
2021/01/25 05:55:14;;;;;;;26.20;19.17;;;-1.00;93.70;;;;;;5026790;28;20033;-82
2021/01/25 05:57:40;;;;;;;29.73;19.95;;;-1.00;93.70;;;;;;5027631;28;20037;-82
2021/01/25 06:00:07;;;;;;;31.00;19.58;;;-1.00;93.70;;;;;;5027749;28;20171;-82
2021/01/25 06:02:39;;;;;;;28.58;19.58;;;-1.00;93.70;;;;;;5024705;28;20033;-82
2021/01/25 06:05:08;;;;;;;24.63;19.10;;;-1.00;93.70;;;;;;5028093;28;20049;-82
2021/01/25 06:07:34;;;;;;;27.75;20.55;;;-1.00;93.90;;;;;;5020497;28;20069;-82
2021/01/25 06:10:03;;;;;;;29.73;19.92;;;-1.00;93.90;;;;;;5029464;28;20471;-82
2021/01/25 06:12:37;;;;;;;29.67;20.65;;;-1.00;94.00;;;;;;5022287;28;20516;-82
2021/01/25 06:15:12;;;;;;;29.00;20.55;;;-1.00;94.10;;;;;;5028594;28;20044;-82
2021/01/25 06:17:38;;;;;;;33.95;21.77;;;-1.10;94.20;;;;;;5026703;28;20052;-82
2021/01/25 06:20:09;;;;;;;31.83;21.27;;;-1.10;94.30;;;;;;5026403;28;20030;-82
2021/01/25 06:22:36;;;;;;;31.80;21.55;;;-1.10;94.30;;;;;;5024956;28;20063;-82
2021/01/25 06:25:04;;;;;;;30.55;20.17;;;-1.10;94.40;;;;;;5026684;28;20506;-83
2021/01/25 06:27:30;;;;;;;30.17;21.48;;;-1.10;94.30;;;;;;5026175;28;20060;-82
2021/01/25 06:30:00;;;;;;;29.33;19.90;;;-1.20;94.00;;;;;;5025160;28;20133;-82
2021/01/25 06:32:34;;;;;;;28.98;20.33;;;-1.20;94.00;;;;;;5028398;28;20052;-82
2021/01/25 06:35:06;;;;;;;32.72;21.52;;;-1.20;93.90;;;;;;5026749;28;20045;-83
2021/01/25 06:37:37;;;;;;;26.77;20.15;;;-1.30;93.90;;;;;;5030306;28;20087;-82
2021/01/25 06:40:10;;;;;;;27.80;20.08;;;-1.30;94.10;;;;;;5028164;28;20112;-82
2021/01/25 06:42:41;;;;;;;33.38;23.98;;;-1.30;94.20;;;;;;5026155;28;20056;-82
2021/01/25 06:45:08;;;;;;;37.53;22.20;;;-1.20;94.30;;;;;;5028788;28;20042;-82
2021/01/25 06:47:37;;;;;;;32.80;23.63;;;-1.30;94.30;;;;;;5023051;28;20046;-82
2021/01/25 06:50:04;;;;;;;31.08;20.20;;;-1.30;94.30;;;;;;5026701;28;20069;-82
2021/01/25 06:52:31;;;;;;;36.08;22.80;;;-1.30;94.30;;;;;;5021273;28;20044;-82
2021/01/25 06:55:03;;;;;;;32.58;21.40;;;-1.30;94.20;;;;;;5017844;28;20680;-82
2021/01/25 06:57:33;;;;;;;33.58;21.73;;;-1.20;94.40;;;;;;5020838;28;20038;-82
2021/01/25 07:00:09;;;;;;;48.15;21.55;;;-1.30;94.00;;;;;;5026606;28;20073;-81
2021/01/25 07:02:54;;;;;;;30.08;19.17;;;-1.30;94.20;;;;;;5021963;28;20050;-81
2021/01/25 07:05:38;;;;;;;32.28;22.08;;;-1.40;94.20;;;;;;5016982;28;20061;-81
2021/01/25 07:08:20;;;;;;;32.03;22.10;;;-1.40;94.20;;;;;;5029478;28;20489;-81
2021/01/25 07:10:56;;;;;;;32.95;20.88;;;-1.30;94.30;;;;;;5022997;28;20050;-81
2021/01/25 07:13:24;;;;;;;31.38;22.25;;;-1.40;94.40;;;;;;5026700;28;20074;-81
2021/01/25 07:15:51;;;;;;;30.20;20.80;;;-1.40;94.40;;;;;;5020323;28;20076;-81
2021/01/25 07:18:18;;;;;;;23.05;17.00;;;-1.40;94.20;;;;;;5031171;28;20056;-81
2021/01/25 07:20:49;;;;;;;28.92;18.55;;;-1.40;93.90;;;;;;5026806;28;20030;-81
2021/01/25 07:23:18;;;;;;;26.73;19.42;;;-1.40;93.60;;;;;;5027534;28;20041;-81
2021/01/25 07:25:46;;;;;;;27.67;20.38;;;-1.50;93.60;;;;;;5024243;28;20033;-81
2021/01/25 07:28:11;;;;;;;27.92;20.02;;;-1.40;93.70;;;;;;5022168;28;20037;-81
2021/01/25 07:30:37;;;;;;;37.80;24.02;;;-1.40;93.90;;;;;;5024409;28;20092;-81
2021/01/25 07:33:03;;;;;;;31.90;22.27;;;-1.40;94.00;;;;;;5022785;28;20135;-81
2021/01/25 07:35:29;;;;;;;34.88;23.63;;;-1.40;94.00;;;;;;5023317;28;20045;-81
2021/01/25 07:37:55;;;;;;;32.28;22.42;;;-1.40;94.20;;;;;;5032082;28;20045;-82
2021/01/25 07:40:24;;;;;;;38.22;24.90;;;-1.40;94.40;;;;;;5026179;28;20407;-82
2021/01/25 07:42:50;;;;;;;34.67;23.98;;;-1.40;94.40;;;;;;5024205;28;20099;-81
2021/01/25 07:45:16;;;;;;;42.90;22.15;;;-1.40;94.50;;;;;;5022941;28;20029;-82
2021/01/25 07:47:45;;;;;;;39.20;21.70;;;-1.40;94.40;;;;;;5023922;28;20048;-82
2021/01/25 07:50:12;;;;;;;36.70;20.70;;;-1.30;94.40;;;;;;5024814;28;20029;-83
2021/01/25 07:52:38;;;;;;;35.28;20.08;;;-1.30;94.30;;;;;;5028786;28;20041;-82
2021/01/25 07:55:14;;;;;;;32.80;20.88;;;-1.30;94.20;;;;;;5025273;28;20042;-82
2021/01/25 07:57:41;;;;;;;30.08;19.17;;;-1.40;94.10;;;;;;5028145;28;20056;-82
2021/01/25 08:00:17;;;;;;;30.80;18.85;;;-1.30;94.00;;;;;;5025826;28;20041;-82
2021/01/25 08:02:45;;;;;;;;;;;-1.30;93.90;;;;;;5025084;28;20033;-81
2021/01/25 08:05:11;;;;;;;25.83;18.30;;;-1.30;93.90;;;;;;5029705;28;19932;-82
2021/01/25 08:07:39;;;;;;;33.15;19.23;;;-1.30;93.90;;;;;;5027076;28;20033;-82
2021/01/25 08:10:06;;;;;;;27.98;18.42;;;-1.30;93.90;;;;;;5028135;28;20046;-81
2021/01/25 08:12:32;;;;;;;30.15;19.27;;;-1.30;94.00;;;;;;5019946;28;20087;-82
2021/01/25 08:15:04;;;;;;;28.08;19.70;;;-1.20;94.10;;;;;;5026759;28;20041;-82
2021/01/25 08:17:37;;;;;;;32.78;20.77;;;-1.20;94.10;;;;;;5027259;28;20068;-82
2021/01/25 08:20:09;;;;;;;31.75;19.15;;;-1.20;94.20;;;;;;5027092;28;20041;-82
2021/01/25 08:23:12;;;;;;;28.38;20.95;;;-1.20;94.20;;;;;;5021952;28;20044;-81
2021/01/25 08:25:38;;;;;;;34.72;21.30;;;-1.10;94.20;;;;;;4990351;28;20050;-81
2021/01/25 08:28:18;;;;;;;31.35;21.13;;;-1.10;94.20;;;;;;5026714;28;20041;-82
2021/01/25 08:30:48;;;;;;;28.45;19.63;;;-1.10;94.30;;;;;;5024544;28;20037;-82
2021/01/25 08:33:35;;;;;;;28.48;21.85;;;-0.90;94.40;;;;;;5023363;28;20041;-82
2021/01/25 08:36:03;;;;;;;31.33;22.95;;;-0.90;94.30;;;;;;5025966;28;20037;-81
2021/01/25 08:38:30;;;;;;;30.42;21.98;;;-0.90;94.30;;;;;;5022760;28;20045;-82
2021/01/25 08:40:58;;;;;;;59.30;23.10;;;-0.80;94.30;;;;;;5028117;28;20033;-82
2021/01/25 08:43:28;;;;;;;32.10;22.73;;;-0.80;94.30;;;;;;5024037;28;20110;-82
2021/01/25 08:46:07;;;;;;;31.58;22.55;;;-0.70;94.30;;;;;;5026365;28;20069;-82
2021/01/25 08:48:33;;;;;;;32.15;22.95;;;-0.70;94.20;;;;;;5022982;28;20041;-82
2021/01/25 08:51:26;;;;;;;34.25;24.98;;;-0.60;94.20;;;;;;5025113;28;20076;-81
2021/01/25 08:54:00;;;;;;;38.05;25.58;;;-0.50;94.20;;;;;;5024831;28;20116;-82
2021/01/25 08:56:34;;;;;;;35.92;25.23;;;-0.60;94.10;;;;;;5029648;28;20045;-81
2021/01/25 08:59:08;;;;;;;40.33;27.08;;;-0.50;94.20;;;;;;5023797;28;20138;-82
2021/01/25 09:01:34;;;;;;;35.42;24.95;;;-0.50;94.20;;;;;;5024678;28;20068;-82
2021/01/25 09:04:00;;;;;;;37.75;24.33;;;-0.40;94.20;;;;;;5025110;28;20407;-81
2021/01/25 09:06:26;;;;;;;42.65;29.00;;;-0.40;94.30;;;;;;5028327;28;20048;-82
2021/01/25 09:08:52;;;;;;;37.83;27.20;;;-0.40;94.40;;;;;;5022538;28;20041;-82
2021/01/25 09:11:17;;;;;;;39.75;25.88;;;-0.20;94.50;;;;;;5029210;28;20041;-82
2021/01/25 09:13:44;;;;;;;39.42;26.55;;;-0.10;94.50;;;;;;5020466;28;20496;-82
2021/01/25 09:16:09;;;;;;;47.33;29.73;;;-0.10;94.50;;;;;;5020131;28;20068;-82
2021/01/25 09:18:35;;;;;;;40.80;28.02;;;-0.10;94.60;;;;;;5021438;28;20455;-82
2021/01/25 09:21:01;;;;;;;45.10;28.65;;;0.00;94.60;;;;;;5024594;28;20115;-82
2021/01/25 09:23:27;;;;;;;46.72;30.08;;;0.00;94.60;;;;;;5017753;28;20472;-82
2021/01/25 09:25:52;;;;;;;36.90;27.38;;;0.10;94.60;;;;;;5022386;28;20041;-82
2021/01/25 09:28:18;;;;;;;43.53;29.00;;;0.10;94.60;;;;;;5020058;28;20038;-82
2021/01/25 09:30:44;;;;;;;40.08;27.30;;;0.30;94.60;;;;;;5020827;28;20070;-82
2021/01/25 09:33:09;;;;;;;39.45;27.80;;;0.30;94.60;;;;;;5025036;28;20777;-82
2021/01/25 09:35:35;;;;;;;37.83;28.17;;;0.30;94.60;;;;;;5018642;28;20049;-82
2021/01/25 09:38:01;;;;;;;40.25;26.38;;;0.40;94.50;;;;;;5022701;28;20037;-82
2021/01/25 09:40:27;;;;;;;43.65;29.60;;;0.50;94.60;;;;;;5023073;28;20061;-82
2021/01/25 09:42:53;;;;;;;46.00;31.25;;;0.50;94.80;;;;;;5019453;28;20041;-82
2021/01/25 09:45:20;;;;;;;46.05;30.73;;;0.60;94.70;;;;;;5019367;28;20252;-81
2021/01/25 09:47:46;;;;;;;44.08;29.10;;;0.70;94.90;;;;;;5026574;28;20090;-82
2021/01/25 09:50:14;;;;;;;48.10;30.80;;;0.70;94.90;;;;;;5021515;28;20045;-81
2021/01/25 09:52:45;;;;;;;44.38;31.35;;;0.80;94.90;;;;;;5022210;28;20089;-83
2021/01/25 09:55:13;;;;;;;57.97;30.35;;;0.90;94.90;;;;;;5016268;28;20412;-82
2021/01/25 09:57:38;;;;;;;47.90;31.77;;;1.00;95.00;;;;;;5023295;28;20251;-83
2021/01/25 10:00:08;;;;;;;43.92;31.45;;;1.20;95.20;;;;;;5020719;28;20045;-83
2021/01/25 10:02:41;;;;;;;42.10;31.42;;;1.30;95.40;;;;;;5029652;28;20440;-84
2021/01/25 10:05:08;;;;;;;40.55;29.92;;;1.50;95.10;;;;;;5018006;28;20089;-84
2021/01/25 10:07:35;;;;;;;46.97;30.98;;;1.60;95.10;;;;;;5023100;28;20036;-83
2021/01/25 10:10:10;;;;;;;38.85;28.45;;;1.80;95.00;;;;;;5023825;28;20042;-82
2021/01/25 10:12:37;;;;;;;40.85;28.75;;;1.90;94.70;;;;;;5030966;28;20041;-82
2021/01/25 10:15:09;;;;;;;40.80;28.17;;;1.90;94.50;;;;;;5023126;28;20041;-83
2021/01/25 10:17:35;;;;;;;46.15;30.48;;;1.90;94.30;;;;;;5022345;28;20037;-81
2021/01/25 10:20:01;;;;;;;39.10;28.15;;;1.90;94.20;;;;;;5019614;28;20064;-83
2021/01/25 10:22:26;;;;;;;41.67;29.35;;;1.90;94.20;;;;;;5018347;28;20038;-82
2021/01/25 10:24:52;;;;;;;42.53;30.65;;;2.00;94.20;;;;;;5023082;28;20034;-83
2021/01/25 10:27:18;;;;;;;38.53;28.75;;;2.00;94.40;;;;;;5023092;28;20107;-82
2021/01/25 10:29:43;;;;;;;41.20;29.25;;;2.00;94.30;;;;;;5023674;28;20135;-81
2021/01/25 10:32:09;;;;;;;38.22;28.10;;;2.10;94.30;;;;;;5029488;28;20037;-84
2021/01/25 10:34:35;;;;;;;39.20;26.88;;;2.20;94.50;;;;;;5038358;28;20084;-84
2021/01/25 10:37:01;;;;;;;39.03;28.42;;;2.40;94.80;;;;;;5036468;28;20094;-83
2021/01/25 10:39:26;;;;;;;36.13;26.25;;;2.50;94.40;;;;;;5046019;28;20556;-83
2021/01/25 10:41:52;;;;;;;38.00;26.25;;;2.70;94.30;;;;;;5044746;28;20040;-83
2021/01/25 10:44:18;;;;;;;32.35;25.35;;;2.70;94.00;;;;;;5041698;28;20036;-83
2021/01/25 10:46:45;;;;;;;33.00;24.30;;;2.90;93.70;;;;;;5036622;28;20510;-82
2021/01/25 10:49:11;;;;;;;31.33;23.70;;;3.10;93.70;;;;;;5038892;28;20068;-82
2021/01/25 10:51:37;;;;;;;33.28;24.25;;;3.20;93.10;;;;;;5041219;28;20116;-82
2021/01/25 10:54:02;;;;;;;29.85;23.98;;;3.40;92.90;;;;;;5035694;28;20531;-83
2021/01/25 10:56:28;;;;;;;31.58;23.65;;;3.50;92.70;;;;;;5039616;28;20369;-83
2021/01/25 10:58:54;;;;;;;25.65;19.73;;;3.60;92.20;;;;;;5035263;28;20046;-82
2021/01/25 11:01:19;;;;;;;25.23;20.92;;;3.80;91.40;;;;;;5038823;28;20049;-83
2021/01/25 11:03:46;;;;;;;28.83;22.20;;;3.90;91.90;;;;;;5042360;28;20048;-83
2021/01/25 11:06:16;;;;;;;25.10;21.48;;;4.00;91.70;;;;;;5033249;28;20037;-83
2021/01/25 11:08:42;;;;;;;27.55;22.33;;;4.20;91.30;;;;;;5037706;28;20121;-83
2021/01/25 11:11:09;;;;;;;27.02;21.02;;;4.40;91.30;;;;;;5033215;28;20447;-83
2021/01/25 11:13:36;;;;;;;25.42;19.33;;;4.40;91.40;;;;;;5037338;28;20095;-82
2021/01/25 11:16:02;;;;;;;21.20;16.13;;;4.50;90.80;;;;;;5038589;28;20041;-82
2021/01/25 11:18:28;;;;;;;19.92;16.48;;;4.70;89.90;;;;;;5031700;28;20049;-82
2021/01/25 11:20:55;;;;;;;18.48;15.50;;;4.90;90.20;;;;;;5043523;28;20084;-81
2021/01/25 11:23:20;;;;;;;20.73;16.05;;;5.20;89.20;;;;;;5031611;28;20053;-81
2021/01/25 11:25:46;;;;;;;23.80;15.90;;;5.40;87.90;;;;;;5033490;28;20038;-80
2021/01/25 11:28:12;;;;;;;20.33;15.45;;;5.70;87.80;;;;;;5036038;28;20033;-80
2021/01/25 11:30:38;;;;;;;21.60;15.35;;;5.80;87.80;;;;;;5028749;28;20041;-81
2021/01/25 11:33:04;;;;;;;18.73;15.18;;;6.00;87.50;;;;;;5031015;28;20477;-80
2021/01/25 11:35:30;;;;;;;19.95;14.80;;;5.90;85.00;;;;;;5030773;28;20049;-80
2021/01/25 11:37:55;;;;;;;19.25;13.95;;;5.90;85.80;;;;;;5030809;28;20605;-80
2021/01/25 11:40:21;;;;;;;18.33;14.68;;;6.00;87.00;;;;;;5030987;28;20044;-80
2021/01/25 11:42:47;;;;;;;19.25;14.38;;;6.20;85.50;;;;;;5035340;28;20125;-79
2021/01/25 11:45:13;;;;;;;18.38;15.45;;;6.50;84.50;;;;;;5027753;28;20072;-79
2021/01/25 11:47:39;;;;;;;19.95;16.10;;;6.80;85.20;;;;;;5023588;28;20480;-79
2021/01/25 11:50:06;;;;;;;22.63;15.35;;;6.90;83.80;;;;;;5026346;28;20095;-79
2021/01/25 11:52:32;;;;;;;18.55;15.93;;;7.00;81.80;;;;;;5026993;28;20106;-79
2021/01/25 11:54:58;;;;;;;16.42;14.73;;;7.00;82.10;;;;;;5025102;28;20477;-79
2021/01/25 11:57:23;;;;;;;19.10;14.43;;;7.10;81.90;;;;;;5023621;28;20520;-79
2021/01/25 11:59:49;;;;;;;20.17;15.85;;;7.20;82.10;;;;;;5027544;28;20312;-79
2021/01/25 12:02:14;;;;;;;20.35;15.70;;;7.20;80.50;;;;;;5028561;28;20038;-80
2021/01/25 12:04:40;;;;;;;17.63;15.18;;;7.20;79.90;;;;;;5035789;28;20444;-80
2021/01/25 12:07:05;;;;;;;15.23;13.63;;;7.30;79.90;;;;;;5034627;28;20041;-79
2021/01/25 12:09:31;;;;;;;15.80;14.07;;;7.20;78.80;;;;;;5033178;28;20513;-79
2021/01/25 12:11:57;;;;;;;15.85;14.25;;;7.30;79.20;;;;;;5035937;28;20411;-79
2021/01/25 12:14:23;;;;;;;17.35;14.70;;;7.30;78.90;;;;;;5033456;28;20407;-80
2021/01/25 12:16:49;;;;;;;17.65;15.75;;;7.30;78.80;;;;;;5033672;28;20111;-79
2021/01/25 12:19:14;;;;;;;21.30;18.27;;;7.30;76.60;;;;;;5033803;28;20037;-79
2021/01/25 12:21:44;;;;;;;19.67;17.00;;;7.20;77.60;;;;;;5035690;28;20075;-80
2021/01/25 12:24:09;;;;;;;21.98;17.02;;;7.00;76.90;;;;;;5036906;28;20080;-80
2021/01/25 12:26:35;;;;;;;18.20;15.65;;;7.00;76.50;;;;;;5039526;28;20068;-80
2021/01/25 12:29:01;;;;;;;21.38;16.80;;;6.90;78.80;;;;;;5032238;28;20502;-81
2021/01/25 12:31:27;;;;;;;25.65;18.80;;;6.90;78.50;;;;;;5036509;28;20041;-81
2021/01/25 12:33:53;;;;;;;21.25;17.98;;;6.90;78.00;;;;;;5027992;28;20034;-81
2021/01/25 12:36:19;;;;;;;20.50;17.85;;;6.80;79.50;;;;;;5027263;28;20073;-81